Currently 52°F in Fallbrook, California, USA
52°F
52°F / 51°F
calm
0.00"
Monday, December 17, 2018 1:35 AM PST

Fallbrook, California Weather Summary
Last 36 Hours

Temperature Winds Hourly Humidity Dewpoint
Time Report Norm Report Norm Max Gusts Precip. Rpt. Norm Rpt. Norm Pressure
1Mon 01:35 AM  51.5°F  51°F  calm  1 mph  none  0.00"  100%  78%  52°F  45°F  30.16"
3Mon 01:32 AM  51.4°F  52°F  calm  1 mph  none  ----  100%  78%  51°F  45°F  30.16"
Mon 01:00 AM  51.9°F  52°F  calm  1 mph  none  0.00"  100%  78%  52°F  45°F  30.16"
2Mon 12:23 AM  52.4°F  52°F  calm  1 mph  none  ----  100%  79%  52°F  45°F  30.16"
Mon 12:00 AM  52.0°F  52°F  calm  1 mph  none  0.00"  100%  79%  52°F  46°F  30.16"
Sun 11:00 PM  53.5°F  53°F  calm  1 mph  none  0.00"  100%  79%  53°F  46°F  30.14"
Sun 10:00 PM  54.8°F  53°F  calm  1 mph  2 mph  0.00"  100%  80%  55°F  47°F  30.16"
Sun 09:00 PM  55.6°F  54°F  calm  1 mph  5 mph  0.00"  100%  80%  56°F  48°F  30.16"
Sun 08:00 PM  55.7°F  55°F  calm  1 mph  none  0.00"  100%  80%  56°F  48°F  30.16"
Sun 07:00 PM  55.3°F  55°F  calm  1 mph  none  0.00"  100%  80%  55°F  49°F  30.14"
Sun 06:00 PM  56.8°F  56°F  calm  1 mph  none  0.00"  100%  78%  57°F  49°F  30.13"
Sun 05:00 PM  59.5°F  58°F  calm  1 mph  none  0.00"  95%  75%  58°F  49°F  30.13"
Sun 04:00 PM  63.9°F  61°F  calm  2 mph  9 mph  0.00"  77%  67%  56°F  50°F  30.11"
Sun 03:00 PM  65.8°F  63°F  calm  2 mph  9 mph  0.00"  67%  62%  54°F  50°F  30.10"
Sun 02:00 PM  69.8°F  64°F  2 mph SW  3 mph  8 mph  0.00"  51%  58%  50°F  49°F  30.10"
Sun 01:00 PM  71.3°F  65°F  2 mph SW  2 mph  5 mph  0.00"  38%  56%  44°F  48°F  30.09"
Sun 12:00 PM  70.6°F  64°F  calm  2 mph  3 mph  0.00"  36%  57%  41°F  48°F  30.11"
Sun 11:00 AM  68.0°F  62°F  calm  2 mph  3 mph  0.00"  44%  61%  45°F  48°F  30.14"
Sun 10:00 AM  62.3°F  60°F  calm  2 mph  none  0.00"  56%  66%  46°F  48°F  30.17"
Sun 09:00 AM  57.1°F  56°F  calm  1 mph  none  0.00"  63%  71%  44°F  46°F  30.17"
Sun 08:00 AM  50.1°F  52°F  calm  1 mph  none  0.00"  65%  75%  38°F  44°F  30.18"
Sun 07:00 AM  49.4°F  50°F  calm  1 mph  none  0.00"  63%  75%  37°F  43°F  30.15"
Sun 06:00 AM  51.2°F  51°F  calm  1 mph  none  0.00"  58%  75%  36°F  43°F  30.11"
Sun 05:00 AM  51.4°F  51°F  calm  1 mph  none  0.00"  60%  76%  37°F  43°F  30.10"
Sun 04:00 AM  52.3°F  51°F  calm  1 mph  none  0.00"  56%  76%  36°F  44°F  30.10"
Sun 03:00 AM  52.8°F  51°F  calm  1 mph  none  0.00"  58%  76%  38°F  44°F  30.11"
Sun 02:00 AM  53.0°F  52°F  calm  1 mph  none  0.00"  60%  77%  39°F  44°F  30.11"
Sun 01:00 AM  52.8°F  52°F  calm  1 mph  none  0.00"  73%  77%  44°F  45°F  30.10"
Sun 12:00 AM  53.1°F  52°F  calm  1 mph  none  0.00"  97%  78%  52°F  46°F  30.11"
Sat 11:00 PM  54.2°F  53°F  calm  1 mph  none  0.00"  96%  78%  53°F  46°F  30.13"
Sat 10:00 PM  54.3°F  54°F  calm  1 mph  none  0.00"  90%  79%  51°F  47°F  30.14"
Sat 09:00 PM  54.8°F  54°F  calm  1 mph  none  0.00"  81%  79%  49°F  47°F  30.13"
Sat 08:00 PM  55.5°F  55°F  calm  1 mph  4 mph  0.00"  76%  79%  48°F  48°F  30.11"
Sat 07:00 PM  55.8°F  55°F  calm  1 mph  3 mph  0.00"  84%  80%  51°F  49°F  30.10"
Sat 06:00 PM  58.1°F  56°F  calm  1 mph  none  0.00"  78%  78%  51°F  49°F  30.09"
Sat 05:00 PM  60.5°F  58°F  calm  calm  2 mph  0.00"  60%  74%  46°F  50°F  30.06"
Sat 04:00 PM  66.9°F  62°F  1 mph S  1 mph  5 mph  0.00"  44%  66%  44°F  50°F  30.04"
Sat 03:00 PM  70.1°F  64°F  2 mph SW  2 mph  6 mph  0.00"  42%  61%  45°F  50°F  30.03"
Sat 02:00 PM  71.3°F  65°F  1 mph SW  3 mph  5 mph  0.00"  36%  57%  42°F  49°F  30.02"

  1. Current weather data. No green row appears if the current weather data is also the high or low for the current day.
  2. High temperature for the current day.
  3. Low temperature for the current day.

The Fallbrook weather pages are a service of WeatherCurrents. Fallbrook, California is located in northern San Diego County, close to I15 and Camp Pendleton, and is home to ranches, avocado and citrus groves, and plant nurseries.
Copyright ©Mon Dec 17 01:35:39 PST 2018  WeatherCurrents. All rights reserved. - Submit questions and comments - Privacy Policy

This page automatically refreshes every 10 minutes.